Time;durP1;ratioP1;P1;durP2;ratioP2;P2;SDS_P1;SDS_P2;PMS_P1;PMS_P2;Temp;Humidity;BMP_temperature;BMP_pressure;BME280_temperature;BME280_humidity;BME280_pressure;Samples;Min_cycle;Max_cycle;Signal;HPM_P1;HPM_P2
2023/06/04 00:00:59;;;;;;;2.83;1.35;;;;;;;14.82;47.58;100627.22;4999480;28;20046;-80
2023/06/04 00:03:26;;;;;;;2.78;1.70;;;;;;;13.80;47.72;100458.41;5007354;28;20554;-81
2023/06/04 00:05:53;;;;;;;3.38;1.67;;;;;;;14.10;48.01;100522.28;5009125;28;20062;-79
2023/06/04 00:08:20;;;;;;;2.90;1.55;;;;;;;14.54;47.72;100596.91;5007143;28;20046;-79
2023/06/04 00:10:46;;;;;;;2.38;1.40;;;;;;;14.37;48.00;100573.91;5015125;28;20046;-79
2023/06/04 00:13:13;;;;;;;2.40;1.63;;;;;;;14.70;47.88;100616.34;5005839;28;20060;-78
2023/06/04 00:15:39;;;;;;;4.30;1.30;;;;;;;14.68;47.75;100620.06;5004811;28;20041;-78
2023/06/04 00:18:06;;;;;;;2.67;1.25;;;;;;;14.48;47.93;100591.94;5005134;28;20087;-78
2023/06/04 00:20:33;;;;;;;4.43;1.50;;;;;;;14.29;48.40;100575.31;5002281;28;20053;-79
2023/06/04 00:22:59;;;;;;;3.88;1.70;;;;;;;14.39;48.34;100587.13;5003151;28;20129;-79
2023/06/04 00:25:26;;;;;;;4.07;2.00;;;;;;;14.27;47.96;100561.22;4998724;28;20571;-77
2023/06/04 00:27:52;;;;;;;2.70;1.58;;;;;;;14.34;48.64;100592.72;5008995;28;20050;-80
2023/06/04 00:30:19;;;;;;;4.18;1.63;;;;;;;14.01;48.74;100554.75;5006727;28;20050;-78
2023/06/04 00:32:46;;;;;;;4.95;1.52;;;;;;;14.31;49.06;100592.06;5001617;28;20531;-78
2023/06/04 00:35:13;;;;;;;2.67;1.40;;;;;;;14.36;48.85;100601.47;4999389;28;20042;-79
2023/06/04 00:37:40;;;;;;;3.65;1.80;;;;;;;14.35;49.19;100607.75;5006307;28;20056;-79
2023/06/04 00:40:07;;;;;;;5.10;1.60;;;;;;;14.31;48.74;100606.25;5023296;28;20047;-80
2023/06/04 00:42:34;;;;;;;5.45;2.10;;;;;;;13.80;49.06;100542.72;5009008;28;20054;-78
2023/06/04 00:45:00;;;;;;;3.47;1.52;;;;;;;14.03;49.62;100601.66;5001973;28;20500;-79
2023/06/04 00:47:27;;;;;;;5.63;1.67;;;;;;;13.65;50.08;100540.00;5007020;28;20046;-80
2023/06/04 00:49:56;;;;;;;2.08;1.60;;;;;;;14.02;49.68;100612.38;5009054;28;20041;-78
2023/06/04 00:52:24;;;;;;;3.47;1.48;;;;;;;14.04;50.21;100618.50;5009035;28;20049;-78
2023/06/04 00:54:51;;;;;;;2.42;1.60;;;;;;;13.70;50.20;100572.50;5009460;28;20427;-78
2023/06/04 00:57:18;;;;;;;2.95;1.58;;;;;;;13.58;50.26;100545.75;5010117;28;20064;-81
2023/06/04 00:59:44;;;;;;;2.70;1.70;;;;;;;13.87;50.32;100598.16;4998628;28;20054;-81
2023/06/04 01:02:15;;;;;;;2.65;1.75;;;;;;;13.88;50.74;100597.22;5003714;28;20531;-79
2023/06/04 01:04:46;;;;;;;5.25;1.67;;;;;;;13.42;50.75;100527.13;5007183;28;20046;-78
2023/06/04 01:07:14;;;;;;;;;;;;;;;14.03;50.40;100617.63;5004095;28;20077;-80
2023/06/04 01:09:40;;;;;;;2.35;1.48;;;;;;;14.02;50.66;100615.91;4998962;28;19993;-79
2023/06/04 01:12:08;;;;;;;5.10;1.90;;;;;;;13.86;50.90;100595.56;5007993;28;20050;-79
2023/06/04 01:14:35;;;;;;;2.00;1.80;;;;;;;13.87;50.52;100605.28;4989688;28;20077;-80
2023/06/04 01:17:08;;;;;;;2.78;1.50;;;;;;;13.95;50.66;100619.03;5007892;28;20444;-79
2023/06/04 01:20:00;;;;;;;3.10;1.83;;;;;;;13.94;50.60;100615.50;5002706;28;20049;-79
2023/06/04 01:22:43;;;;;;;2.95;1.50;;;;;;;13.76;50.81;100592.59;4997264;28;20053;-81
2023/06/04 01:25:33;;;;;;;2.65;1.50;;;;;;;13.86;51.35;100617.72;5011671;28;20133;-78
2023/06/04 01:28:02;;;;;;;6.75;1.60;;;;;;;13.85;51.26;100612.53;5011629;28;20104;-78
2023/06/04 01:30:34;;;;;;;4.00;2.00;;;;;;;13.59;51.45;100582.91;4994350;28;20125;-79
2023/06/04 01:33:01;;;;;;;2.90;1.55;;;;;;;13.17;51.44;100503.72;5006676;28;20050;-81
2023/06/04 01:35:33;;;;;;;5.22;1.92;;;;;;;13.80;51.84;100617.25;5006956;28;20113;-78
2023/06/04 01:37:59;;;;;;;3.53;1.80;;;;;;;13.66;51.96;100597.59;4995674;28;20054;-78
2023/06/04 01:40:26;;;;;;;4.72;1.60;;;;;;;13.65;52.21;100600.34;4992039;28;20049;-79
2023/06/04 01:42:53;;;;;;;5.47;2.35;;;;;;;13.74;52.06;100615.78;5007516;28;20045;-78
2023/06/04 01:45:21;;;;;;;3.35;1.60;;;;;;;13.58;51.96;100585.66;4998178;28;20061;-78
2023/06/04 01:47:48;;;;;;;3.03;1.35;;;;;;;13.14;52.61;100529.59;5000966;28;20060;-79
2023/06/04 01:50:15;;;;;;;3.00;1.77;;;;;;;13.48;52.50;100589.78;5001654;28;20046;-80
2023/06/04 01:52:42;;;;;;;2.03;1.42;;;;;;;12.97;53.01;100517.22;5002428;28;20050;-78
2023/06/04 01:55:11;;;;;;;3.40;1.52;;;;;;;13.51;53.23;100610.91;4998487;28;20141;-80
2023/06/04 01:57:39;;;;;;;1.80;1.60;;;;;;;13.45;53.70;100617.41;4989113;28;20054;-80
2023/06/04 02:00:11;;;;;;;3.83;1.88;;;;;;;13.25;53.80;100593.69;4997066;28;20456;-79
2023/06/04 02:02:40;;;;;;;3.92;1.77;;;;;;;13.40;54.12;100615.94;5006233;28;20069;-79
2023/06/04 02:05:08;;;;;;;3.28;1.60;;;;;;;13.19;53.73;100596.72;5000318;28;20394;-80
2023/06/04 02:07:39;;;;;;;4.63;1.73;;;;;;;13.19;54.24;100597.56;4993523;28;20053;-81
2023/06/04 02:10:07;;;;;;;3.33;1.70;;;;;;;13.13;54.56;100591.69;5006736;28;20154;-79
2023/06/04 02:12:39;;;;;;;3.78;1.60;;;;;;;13.28;54.99;100612.16;4991329;28;20050;-79
2023/06/04 02:15:07;;;;;;;2.80;1.70;;;;;;;13.25;54.83;100617.63;5008028;28;20046;-80
2023/06/04 02:17:37;;;;;;;2.08;1.63;;;;;;;13.12;54.61;100592.63;5008582;28;20049;-79
2023/06/04 02:20:05;;;;;;;3.60;2.00;;;;;;;12.98;54.81;100570.31;5007836;28;20070;-79
2023/06/04 02:22:32;;;;;;;3.13;1.77;;;;;;;13.18;54.94;100601.16;5011463;28;20515;-80
2023/06/04 02:24:58;;;;;;;5.10;2.03;;;;;;;13.11;54.96;100597.06;4994707;28;20046;-79
2023/06/04 02:27:25;;;;;;;3.70;1.70;;;;;;;12.64;55.47;100535.84;5015800;28;20042;-78
2023/06/04 02:29:51;;;;;;;5.40;1.60;;;;;;;13.10;56.02;100608.66;5003460;28;20056;-79
2023/06/04 02:32:18;;;;;;;2.75;1.60;;;;;;;13.06;55.84;100611.59;5024485;28;20056;-79
2023/06/04 02:34:44;;;;;;;2.38;1.60;;;;;;;13.04;55.28;100622.28;4999119;28;20402;-79
2023/06/04 02:37:11;;;;;;;2.95;1.35;;;;;;;12.97;56.29;100608.47;5006266;28;20052;-79
2023/06/04 02:39:37;;;;;;;4.93;1.77;;;;;;;12.96;56.23;100617.38;5023661;28;20149;-79
2023/06/04 02:42:04;;;;;;;3.38;1.70;;;;;;;12.76;56.59;100566.22;5023254;28;20046;-80
2023/06/04 02:44:31;;;;;;;4.43;1.60;;;;;;;12.80;56.37;100584.56;5022645;28;20050;-81
2023/06/04 02:46:57;;;;;;;3.33;1.60;;;;;;;12.92;56.96;100620.25;5005090;28;20129;-79
2023/06/04 02:49:24;;;;;;;4.32;1.90;;;;;;;12.82;56.75;100593.31;5003434;28;20064;-78
2023/06/04 02:51:51;;;;;;;5.00;1.70;;;;;;;12.67;56.60;100572.88;5007650;28;20050;-79
2023/06/04 02:54:17;;;;;;;2.80;1.80;;;;;;;12.65;57.33;100574.75;5006319;28;20057;-79
2023/06/04 02:56:44;;;;;;;3.88;2.10;;;;;;;12.89;57.71;100623.13;5003786;28;20057;-78
2023/06/04 02:59:10;;;;;;;3.80;2.08;;;;;;;12.55;57.46;100562.91;5007388;28;21161;-79
2023/06/04 03:01:40;;;;;;;3.60;2.00;;;;;;;12.74;57.93;100603.53;5005780;28;20042;-78
2023/06/04 03:04:09;;;;;;;4.38;2.08;;;;;;;12.77;57.47;100613.09;4997717;28;20053;-79
2023/06/04 03:06:39;;;;;;;4.93;2.20;;;;;;;12.78;57.98;100618.34;5020295;28;20120;-79
2023/06/04 03:09:06;;;;;;;5.78;2.28;;;;;;;11.69;58.27;100433.72;5006528;28;20060;-79
2023/06/04 03:11:33;;;;;;;4.93;2.53;;;;;;;12.25;57.96;100550.28;5005240;28;20042;-79
2023/06/04 03:13:59;;;;;;;5.80;2.15;;;;;;;12.57;58.49;100603.53;5021878;28;20121;-79
2023/06/04 03:16:26;;;;;;;4.03;2.28;;;;;;;12.35;59.25;100586.97;5022349;28;20066;-80
2023/06/04 03:18:53;;;;;;;5.35;2.70;;;;;;;12.54;58.62;100614.31;5011193;28;20054;-79
2023/06/04 03:21:19;;;;;;;4.43;2.55;;;;;;;12.60;59.13;100630.78;5008879;28;20140;-78
2023/06/04 03:23:46;;;;;;;5.32;2.67;;;;;;;12.55;59.38;100616.91;5019368;28;20046;-79
2023/06/04 03:26:12;;;;;;;10.13;2.72;;;;;;;12.52;59.41;100610.88;5006834;28;20058;-78
2023/06/04 03:28:40;;;;;;;6.72;2.85;;;;;;;12.27;59.01;100561.69;5007725;28;20061;-79
2023/06/04 03:31:06;;;;;;;6.03;2.63;;;;;;;12.49;59.45;100601.25;5022897;28;20046;-79
2023/06/04 03:33:33;;;;;;;6.15;2.92;;;;;;;12.44;59.28;100599.78;5005059;28;20540;-80
2023/06/04 03:36:00;;;;;;;7.78;2.70;;;;;;;12.27;59.50;100574.09;5024199;28;20057;-78
2023/06/04 03:38:26;;;;;;;4.32;2.40;;;;;;;11.65;60.02;100474.59;5019859;28;20088;-80
2023/06/04 03:40:53;;;;;;;5.35;2.63;;;;;;;12.35;59.77;100589.63;5002968;28;20042;-79
2023/06/04 03:43:20;;;;;;;6.50;2.95;;;;;;;12.51;59.83;100619.78;5005494;28;20113;-79
2023/06/04 03:45:47;;;;;;;7.05;3.00;;;;;;;12.29;59.95;100599.63;5017457;28;20047;-79
2023/06/04 03:48:13;;;;;;;6.35;3.05;;;;;;;12.25;60.72;100598.06;5003801;28;20056;-79
2023/06/04 03:50:41;;;;;;;4.82;2.80;;;;;;;12.35;60.85;100610.88;4995118;28;20106;-78
2023/06/04 03:53:07;;;;;;;5.20;2.53;;;;;;;12.15;61.07;100570.25;4992203;28;20054;-80
2023/06/04 03:55:34;;;;;;;6.60;2.70;;;;;;;12.52;60.41;100624.16;5016842;28;20038;-79
2023/06/04 03:58:00;;;;;;;6.22;2.90;;;;;;;11.83;60.61;100513.50;5012713;28;20042;-79
2023/06/04 04:00:27;;;;;;;6.93;2.75;;;;;;;12.50;60.47;100634.00;4995756;28;20050;-80
2023/06/04 04:02:54;;;;;;;4.70;2.58;;;;;;;12.45;61.05;100625.41;5000522;28;20045;-79
2023/06/04 04:05:20;;;;;;;5.75;2.40;;;;;;;12.46;61.16;100633.28;5010033;28;20046;-80
2023/06/04 04:07:47;;;;;;;4.15;2.30;;;;;;;12.47;61.70;100628.84;5027736;28;20141;-81
2023/06/04 04:10:14;;;;;;;5.53;2.17;;;;;;;12.32;60.34;100603.06;4999840;28;20228;-79
2023/06/04 04:12:41;;;;;;;3.42;2.50;;;;;;;11.43;60.29;100458.91;5008979;28;20086;-81
2023/06/04 04:15:08;;;;;;;8.10;2.10;;;;;;;12.48;60.41;100614.63;4997517;28;20042;-79
2023/06/04 04:17:34;;;;;;;3.83;2.50;;;;;;;11.99;60.27;100540.13;4999294;28;20046;-79
2023/06/04 04:20:03;;;;;;;6.18;1.90;;;;;;;12.40;59.73;100596.44;5013774;28;20066;-80
2023/06/04 04:22:31;;;;;;;3.28;1.83;;;;;;;12.55;59.42;100610.72;4998033;28;20064;-79
2023/06/04 04:24:57;;;;;;;3.90;1.80;;;;;;;12.26;60.37;100567.06;5005979;28;20528;-80
2023/06/04 04:27:24;;;;;;;3.15;1.80;;;;;;;12.67;59.53;100622.50;5000275;28;20046;-79
2023/06/04 04:29:50;;;;;;;4.38;1.90;;;;;;;12.62;59.49;100612.97;5014704;28;20492;-80
2023/06/04 04:32:17;;;;;;;4.22;2.25;;;;;;;12.44;59.80;100576.72;5026996;28;20048;-78
2023/06/04 04:34:54;;;;;;;2.70;1.75;;;;;;;12.50;59.90;100596.81;4995837;28;20050;-80
2023/06/04 04:37:21;;;;;;;5.13;1.90;;;;;;;12.76;59.11;100638.81;5011999;28;20046;-80
2023/06/04 04:39:51;;;;;;;4.15;2.13;;;;;;;12.67;58.79;100618.06;4996483;28;20048;-79
2023/06/04 04:42:19;;;;;;;3.40;2.25;;;;;;;12.82;58.44;100637.66;5000017;28;20065;-78
2023/06/04 04:44:47;;;;;;;3.58;1.77;;;;;;;12.68;59.25;100603.81;5010308;28;20048;-79
2023/06/04 04:47:15;;;;;;;4.00;1.90;;;;;;;12.92;58.91;100637.06;5001669;28;20534;-79
2023/06/04 04:49:41;;;;;;;3.97;2.00;;;;;;;12.95;59.98;100639.56;5010444;28;20046;-80
2023/06/04 04:52:08;;;;;;;3.65;2.00;;;;;;;12.97;59.63;100643.03;5010112;28;20053;-80
2023/06/04 04:54:34;;;;;;;3.03;1.58;;;;;;;12.87;60.35;100612.56;4996850;28;20038;-80
2023/06/04 04:57:01;;;;;;;3.05;1.90;;;;;;;12.48;59.24;100550.88;4997960;28;20057;-79
2023/06/04 04:59:39;;;;;;;4.00;1.80;;;;;;;13.06;58.42;100632.84;4998235;28;20397;-80
2023/06/04 05:02:06;;;;;;;5.85;1.77;;;;;;;13.15;57.93;100643.00;5000154;28;20137;-80
2023/06/04 05:04:33;;;;;;;3.97;1.80;;;;;;;13.02;57.86;100605.56;5020773;28;20508;-79
2023/06/04 05:06:59;;;;;;;2.78;1.63;;;;;;;13.02;57.73;100605.56;5006888;28;20049;-79
2023/06/04 05:09:26;;;;;;;2.92;1.70;;;;;;;12.70;57.80;100543.50;5009501;28;20042;-79
2023/06/04 05:11:52;;;;;;;4.55;1.88;;;;;;;13.30;56.88;100645.72;5018229;28;20400;-82
2023/06/04 05:14:19;;;;;;;4.00;1.88;;;;;;;13.48;57.99;100657.16;5022745;28;20122;-80
2023/06/04 05:16:48;;;;;;;2.88;1.83;;;;;;;13.22;57.94;100621.31;5001210;28;20140;-78
2023/06/04 05:19:18;;;;;;;4.07;2.10;;;;;;;13.50;57.00;100663.25;5007596;28;20150;-79
2023/06/04 05:21:44;;;;;;;4.55;2.20;;;;;;;13.53;57.58;100665.75;5007765;28;20042;-80
2023/06/04 05:24:11;;;;;;;7.15;1.77;;;;;;;13.35;56.97;100626.84;5019649;28;20068;-80
2023/06/04 05:26:39;;;;;;;5.03;1.80;;;;;;;13.42;57.07;100645.97;5017844;28;20122;-80
2023/06/04 05:29:07;;;;;;;2.90;1.95;;;;;;;13.40;56.94;100621.25;4998797;28;20050;-80
2023/06/04 05:31:34;;;;;;;4.15;1.70;;;;;;;13.38;56.86;100626.66;5019840;28;20046;-80
2023/06/04 05:34:01;;;;;;;6.75;2.13;;;;;;;13.82;55.62;100679.25;5004748;28;20173;-80
2023/06/04 05:36:30;;;;;;;5.13;1.65;;;;;;;13.43;56.16;100605.13;5003380;28;20046;-80
2023/06/04 05:38:57;;;;;;;3.50;1.75;;;;;;;13.93;56.39;100685.66;5017842;28;20393;-79
2023/06/04 05:41:24;;;;;;;1.85;1.42;;;;;;;13.46;55.75;100604.97;5013627;28;20070;-80
2023/06/04 05:43:50;;;;;;;5.10;2.10;;;;;;;13.60;55.43;100640.50;5006082;28;20049;-79
2023/06/04 05:46:17;;;;;;;4.45;1.70;;;;;;;14.07;55.86;100690.22;5007214;28;20126;-79
2023/06/04 05:48:44;;;;;;;4.50;1.90;;;;;;;13.95;56.21;100649.19;5005699;28;20042;-79
2023/06/04 05:51:10;;;;;;;4.72;2.08;;;;;;;13.96;55.69;100628.72;5023350;28;20056;-79
2023/06/04 05:53:37;;;;;;;5.70;2.00;;;;;;;14.30;54.63;100670.28;5013226;28;20052;-81
2023/06/04 05:56:03;;;;;;;2.38;1.63;;;;;;;14.25;54.31;100665.19;5010573;28;20046;-79
2023/06/04 05:58:30;;;;;;;2.50;1.80;;;;;;;14.34;55.13;100674.44;5005201;28;20045;-79
2023/06/04 06:00:57;;;;;;;4.32;2.17;;;;;;;14.46;55.09;100683.59;5013738;28;20141;-78
2023/06/04 06:03:24;;;;;;;4.05;1.90;;;;;;;14.28;55.20;100650.84;5005553;28;20133;-81
2023/06/04 06:05:50;;;;;;;4.35;1.60;;;;;;;14.57;54.87;100651.81;5026480;28;20050;-79
2023/06/04 06:08:17;;;;;;;2.13;1.58;;;;;;;14.95;53.47;100678.88;5004461;28;20483;-79
2023/06/04 06:10:43;;;;;;;4.38;1.67;;;;;;;15.18;52.37;100688.13;5008731;28;20125;-79
2023/06/04 06:13:10;;;;;;;3.80;1.95;;;;;;;15.13;52.66;100650.19;5007601;28;20492;-80
2023/06/04 06:15:36;;;;;;;1.98;1.58;;;;;;;15.52;51.55;100676.22;5020714;28;20049;-81
2023/06/04 06:18:03;;;;;;;4.97;1.63;;;;;;;15.88;51.40;100683.75;5025660;28;20065;-80
2023/06/04 06:20:30;;;;;;;4.63;1.52;;;;;;;16.23;49.29;100668.06;5000616;28;20141;-80
2023/06/04 06:22:56;;;;;;;5.70;1.80;;;;;;;16.66;49.14;100642.91;5012438;28;20504;-80
2023/06/04 06:25:23;;;;;;;1.73;1.38;;;;;;;17.15;47.90;100667.13;5012687;28;20133;-81
2023/06/04 06:27:50;;;;;;;1.63;1.40;;;;;;;17.46;46.25;100660.44;5005894;28;20053;-82
2023/06/04 06:30:16;;;;;;;3.28;1.75;;;;;;;17.73;46.40;100640.72;5010319;28;20472;-81
2023/06/04 06:32:43;;;;;;;2.20;1.60;;;;;;;18.30;46.47;100697.19;5001320;28;20396;-81
2023/06/04 06:35:10;;;;;;;3.33;1.65;;;;;;;18.61;44.83;100700.28;5022602;28;20053;-80
2023/06/04 06:37:41;;;;;;;2.47;1.50;;;;;;;18.90;45.68;100696.25;5023791;28;20068;-81
2023/06/04 06:40:08;;;;;;;3.03;1.40;;;;;;;19.31;42.98;100708.28;5005970;28;20100;-80
2023/06/04 06:42:35;;;;;;;2.40;1.40;;;;;;;19.41;43.65;100674.34;5007271;28;20404;-80
2023/06/04 06:45:02;;;;;;;5.25;1.50;;;;;;;19.68;43.40;100700.88;5028256;28;20048;-80
2023/06/04 06:47:28;;;;;;;3.67;1.50;;;;;;;19.75;40.20;100673.41;5007311;28;20505;-81
2023/06/04 06:49:55;;;;;;;3.03;1.27;;;;;;;19.97;41.78;100661.78;5004698;28;20133;-80
2023/06/04 06:52:21;;;;;;;1.90;1.40;;;;;;;20.30;41.94;100669.72;4997302;28;20043;-81
2023/06/04 06:54:48;;;;;;;4.95;1.67;;;;;;;20.59;39.49;100702.31;5001972;28;20049;-81
2023/06/04 06:57:15;;;;;;;2.00;1.80;;;;;;;19.98;38.64;100601.66;5017346;28;20052;-81
2023/06/04 06:59:41;;;;;;;2.38;1.70;;;;;;;20.34;39.44;100627.28;5018649;28;20057;-80
2023/06/04 07:02:07;;;;;;;2.85;1.55;;;;;;;20.77;38.02;100716.06;5010973;28;20148;-79
2023/06/04 07:04:35;;;;;;;3.00;1.65;;;;;;;20.28;40.65;100643.97;5015274;28;20627;-78
2023/06/04 07:07:03;;;;;;;2.58;1.33;;;;;;;20.42;40.34;100662.53;5027226;28;20500;-79
2023/06/04 07:09:29;;;;;;;3.40;2.72;;;;;;;20.84;43.01;100713.69;5001236;28;20050;-83
2023/06/04 07:11:56;;;;;;;3.80;1.50;;;;;;;20.52;39.01;100665.28;5019505;28;20365;-79
2023/06/04 07:14:22;;;;;;;2.83;1.40;;;;;;;20.33;37.37;100652.47;4996723;28;20052;-80
2023/06/04 07:16:49;;;;;;;3.47;1.42;;;;;;;20.41;38.35;100679.63;5005379;28;20049;-80
2023/06/04 07:19:15;;;;;;;2.67;1.40;;;;;;;20.14;37.46;100634.38;5006004;28;20100;-79
2023/06/04 07:21:42;;;;;;;1.77;1.30;;;;;;;20.58;37.36;100722.13;5005684;28;20837;-79
2023/06/04 07:24:08;;;;;;;4.25;1.30;;;;;;;20.34;36.76;100710.66;4997197;28;20046;-79
2023/06/04 07:26:35;;;;;;;1.88;1.33;;;;;;;19.63;36.90;100638.63;5007719;28;20044;-80
2023/06/04 07:29:02;;;;;;;4.05;1.42;;;;;;;20.18;37.39;100718.28;5017440;28;20042;-81
2023/06/04 07:31:28;;;;;;;2.15;1.08;;;;;;;20.13;36.35;100685.56;5006616;28;20052;-80
2023/06/04 07:33:55;;;;;;;3.45;1.60;;;;;;;20.09;37.99;100689.47;5004171;28;20110;-81
2023/06/04 07:36:22;;;;;;;2.28;1.58;;;;;;;19.86;37.72;100616.09;4998365;28;20065;-79
2023/06/04 07:38:49;;;;;;;2.85;1.42;;;;;;;20.48;37.23;100683.50;5003975;28;20058;-80
2023/06/04 07:41:15;;;;;;;3.63;1.33;;;;;;;21.10;37.73;100719.53;5025846;28;20065;-81
2023/06/04 07:43:43;;;;;;;2.50;1.48;;;;;;;20.91;34.80;100621.53;4997828;28;20050;-80
2023/06/04 07:46:10;;;;;;;2.45;1.17;;;;;;;21.50;34.57;100708.91;5002790;28;20133;-81
2023/06/04 07:48:37;;;;;;;2.70;1.38;;;;;;;21.76;34.47;100729.00;5026414;28;20046;-80
2023/06/04 07:51:06;;;;;;;3.25;1.17;;;;;;;21.68;33.61;100726.16;5003550;28;20043;-79
2023/06/04 07:53:33;;;;;;;2.58;1.40;;;;;;;20.90;34.20;100657.50;5003143;28;20046;-81
2023/06/04 07:56:00;;;;;;;2.78;1.48;;;;;;;20.57;34.99;100617.31;5003191;28;20072;-79
2023/06/04 07:58:26;;;;;;;1.83;1.25;;;;;;;21.31;36.69;100732.06;4993476;28;20133;-81
2023/06/04 08:00:53;;;;;;;2.47;1.60;;;;;;;20.64;35.34;100581.69;5006794;28;20046;-81
2023/06/04 08:03:20;;;;;;;2.72;1.30;;;;;;;21.29;37.05;100633.50;5002852;28;20045;-80
2023/06/04 08:05:47;;;;;;;3.50;1.50;;;;;;;21.31;34.40;100615.38;5008192;28;20523;-82
2023/06/04 08:08:14;;;;;;;2.67;1.42;;;;;;;21.12;34.72;100618.78;5009490;28;20046;-82
2023/06/04 08:10:41;;;;;;;2.92;1.42;;;;;;;21.81;36.12;100718.69;5004832;28;20535;-82
2023/06/04 08:13:09;;;;;;;6.88;1.52;;;;;;;21.10;34.79;100583.06;5000504;28;20511;-81
2023/06/04 08:15:36;;;;;;;2.35;1.45;;;;;;;21.59;34.65;100651.50;5018069;28;20103;-81
2023/06/04 08:18:05;;;;;;;3.17;1.60;;;;;;;21.02;35.59;100574.81;5010890;28;20045;-80
2023/06/04 08:20:32;;;;;;;3.15;1.45;;;;;;;21.86;35.83;100678.69;5023143;28;20116;-81
2023/06/04 08:22:58;;;;;;;3.28;1.23;;;;;;;22.24;34.73;100677.09;5002405;28;20050;-81
2023/06/04 08:25:25;;;;;;;1.38;1.10;;;;;;;22.43;33.36;100660.06;5016769;28;20057;-81
2023/06/04 08:27:51;;;;;;;1.88;1.17;;;;;;;22.44;33.38;100672.56;5018000;28;20050;-80
2023/06/04 08:30:18;;;;;;;2.15;1.50;;;;;;;22.01;33.92;100639.59;5008828;28;20209;-80
2023/06/04 08:32:45;;;;;;;2.35;1.17;;;;;;;21.91;33.37;100583.91;4998957;28;20038;-81
2023/06/04 08:35:12;;;;;;;3.67;1.42;;;;;;;22.20;33.27;100637.91;5026370;28;20081;-80
2023/06/04 08:37:39;;;;;;;2.95;1.30;;;;;;;22.51;33.51;100690.75;5017043;28;20060;-81
2023/06/04 08:40:08;;;;;;;1.58;1.17;;;;;;;22.50;32.61;100699.88;4996275;28;20050;-80
2023/06/04 08:42:40;;;;;;;3.60;1.35;;;;;;;22.50;33.15;100702.56;5007044;28;20049;-81
2023/06/04 08:45:16;;;;;;;2.22;1.45;;;;;;;22.64;32.59;100717.47;5002606;28;20058;-80
2023/06/04 08:47:50;;;;;;;1.95;1.10;;;;;;;21.97;33.75;100635.44;5015426;28;20052;-79
2023/06/04 08:50:20;;;;;;;3.10;1.58;;;;;;;22.72;32.58;100731.09;5026281;28;20066;-81
2023/06/04 08:52:48;;;;;;;4.22;1.20;;;;;;;22.67;32.62;100685.63;4993664;28;20104;-80
2023/06/04 08:55:14;;;;;;;2.80;1.40;;;;;;;22.50;32.63;100655.81;4987950;28;20531;-80
2023/06/04 08:57:41;;;;;;;2.75;1.20;;;;;;;22.19;33.09;100590.38;5003551;28;20039;-80
2023/06/04 09:00:08;;;;;;;1.75;1.08;;;;;;;23.08;32.43;100718.75;4998997;28;20508;-79
2023/06/04 09:02:37;;;;;;;3.13;1.25;;;;;;;23.17;32.28;100677.34;5023669;28;20156;-80
2023/06/04 09:05:08;;;;;;;1.83;1.38;;;;;;;23.63;32.14;100748.66;5008802;28;20046;-79
2023/06/04 09:07:38;;;;;;;3.45;1.60;;;;;;;23.40;31.92;100716.56;5009555;28;20412;-81
2023/06/04 09:10:09;;;;;;;2.67;1.50;;;;;;;23.47;32.42;100705.13;5005035;28;20056;-79
2023/06/04 09:12:46;;;;;;;3.13;1.10;;;;;;;23.88;32.02;100737.19;5024512;28;20100;-80
2023/06/04 09:15:13;;;;;;;2.70;1.40;;;;;;;22.98;32.04;100651.22;4994341;28;20128;-79
2023/06/04 09:17:39;;;;;;;2.08;1.50;;;;;;;22.91;32.81;100681.69;4995499;28;20105;-81
2023/06/04 09:20:09;;;;;;;1.58;1.40;;;;;;;23.05;33.18;100709.09;5003051;28;20052;-80
2023/06/04 09:22:37;;;;;;;3.72;1.00;;;;;;;23.01;32.19;100731.13;5024318;28;20042;-80
2023/06/04 09:25:07;;;;;;;2.33;1.23;;;;;;;22.20;32.91;100664.88;5009526;28;20090;-78
2023/06/04 09:27:40;;;;;;;1.88;1.20;;;;;;;22.54;33.29;100733.66;5005305;28;20133;-81
2023/06/04 09:30:10;;;;;;;2.28;1.15;;;;;;;22.24;32.95;100701.38;5011321;28;20111;-80
2023/06/04 09:32:36;;;;;;;1.85;1.20;;;;;;;22.14;33.99;100720.25;5006305;28;20050;-80
2023/06/04 09:35:14;;;;;;;3.20;1.10;;;;;;;22.20;34.26;100733.16;5019969;28;20456;-81
2023/06/04 09:37:42;;;;;;;2.55;1.30;;;;;;;21.81;34.68;100639.66;4999979;28;20125;-80
2023/06/04 09:40:09;;;;;;;3.03;1.00;;;;;;;21.98;33.37;100653.31;5005641;28;20046;-80
2023/06/04 09:42:42;;;;;;;2.55;1.25;;;;;;;22.07;31.97;100654.34;4992095;28;20046;-79
2023/06/04 09:45:09;;;;;;;1.98;1.20;;;;;;;22.62;32.77;100724.88;5001826;28;20050;-79
2023/06/04 09:47:43;;;;;;;2.88;1.30;;;;;;;22.22;32.79;100646.69;4989188;28;20156;-80
2023/06/04 09:50:13;;;;;;;2.65;1.38;;;;;;;21.98;31.87;100596.69;4999726;28;20534;-79
2023/06/04 09:52:40;;;;;;;2.80;1.20;;;;;;;22.21;31.38;100662.03;4994986;28;20130;-80
2023/06/04 09:55:22;;;;;;;2.78;1.30;;;;;;;21.78;31.90;100615.66;4988442;28;20070;-78
2023/06/04 09:57:50;;;;;;;2.13;1.30;;;;;;;22.21;31.81;100677.38;4990643;28;20046;-80
2023/06/04 10:00:22;;;;;;;;;;;;;;;22.37;31.48;100712.75;4997247;28;20046;-80
2023/06/04 10:02:55;;;;;;;3.00;1.40;;;;;;;21.52;31.54;100558.72;5004799;28;19922;-79
2023/06/04 10:05:23;;;;;;;3.28;1.50;;;;;;;21.79;31.48;100585.88;5005969;28;20082;-80
2023/06/04 10:07:52;;;;;;;2.85;1.50;;;;;;;21.81;30.41;100591.13;5010129;28;20467;-81
2023/06/04 10:10:25;;;;;;;3.47;1.23;;;;;;;22.11;31.50;100633.34;5001254;28;20566;-79
2023/06/04 10:13:02;;;;;;;1.83;1.38;;;;;;;22.46;31.05;100657.09;4994171;28;20077;-81
2023/06/04 10:15:29;;;;;;;2.45;1.30;;;;;;;22.82;29.31;100687.97;5004795;28;20054;-81
2023/06/04 10:17:56;;;;;;;4.25;1.60;;;;;;;22.82;29.62;100653.72;4996364;28;20104;-81
2023/06/04 10:20:23;;;;;;;1.70;1.10;;;;;;;23.15;27.84;100692.00;5005091;28;20052;-82
2023/06/04 10:22:50;;;;;;;3.58;1.10;;;;;;;22.70;28.55;100598.09;5015807;28;20535;-81
2023/06/04 10:25:18;;;;;;;3.97;1.20;;;;;;;23.13;28.81;100656.19;5021021;28;20045;-81
2023/06/04 10:27:46;;;;;;;2.00;1.05;;;;;;;23.00;27.78;100670.00;4991863;28;20106;-79
2023/06/04 10:30:13;;;;;;;3.17;1.30;;;;;;;22.68;28.33;100611.75;5024667;28;20054;-81
2023/06/04 10:32:40;;;;;;;1.75;1.38;;;;;;;22.93;26.74;100647.28;5002305;28;20038;-80
2023/06/04 10:35:07;;;;;;;1.95;1.00;;;;;;;22.89;25.63;100637.75;5001537;28;20056;-82
2023/06/04 10:37:34;;;;;;;3.53;1.27;;;;;;;23.25;25.75;100706.34;5005768;28;20072;-79
2023/06/04 10:40:04;;;;;;;1.15;1.05;;;;;;;22.49;26.33;100592.06;5010962;28;20046;-80
2023/06/04 10:42:39;;;;;;;2.67;1.20;;;;;;;22.47;27.62;100580.53;5007018;28;20045;-80
2023/06/04 10:45:09;;;;;;;4.30;1.20;;;;;;;22.79;27.17;100631.53;5006667;28;20256;-80
2023/06/04 10:47:40;;;;;;;3.83;1.52;;;;;;;21.95;27.03;100481.03;5026167;28;20096;-81
2023/06/04 10:50:53;;;;;;;1.63;1.25;;;;;;;22.47;28.57;100535.53;5002723;28;20071;-81
2023/06/04 10:53:22;;;;;;;1.83;1.08;;;;;;;22.71;28.17;100560.19;5002774;28;20046;-79
2023/06/04 10:55:51;;;;;;;2.25;1.23;;;;;;;22.72;27.25;100556.47;5005945;28;20103;-82
2023/06/04 10:58:20;;;;;;;1.92;1.25;;;;;;;22.87;28.03;100556.03;5011207;28;20048;-79
2023/06/04 11:00:49;;;;;;;3.03;1.30;;;;;;;23.75;27.02;100696.97;4992258;28;20511;-80
2023/06/04 11:03:37;;;;;;;5.10;1.35;;;;;;;23.52;27.31;100671.31;4997415;28;20061;-81
2023/06/04 11:06:15;;;;;;;1.92;1.20;;;;;;;23.14;27.12;100607.41;4992482;28;20489;-80
2023/06/04 11:08:44;;;;;;;3.25;1.30;;;;;;;23.08;27.25;100598.06;4993014;28;20436;-81
2023/06/04 11:11:15;;;;;;;1.75;1.00;;;;;;;23.61;27.45;100685.78;4997718;28;20049;-80
2023/06/04 11:13:43;;;;;;;1.88;1.35;;;;;;;22.65;27.48;100506.78;4994307;28;20050;-82
2023/06/04 11:16:17;;;;;;;6.07;1.10;;;;;;;23.76;26.73;100693.28;4997326;28;20512;-83
2023/06/04 11:18:54;;;;;;;2.45;1.20;;;;;;;22.30;27.61;100452.63;4993418;28;20053;-80
2023/06/04 11:21:21;;;;;;;1.70;1.40;;;;;;;23.39;26.63;100611.31;4993556;28;20046;-80
2023/06/04 11:23:48;;;;;;;3.03;1.13;;;;;;;23.21;27.08;100580.66;4991826;28;20052;-80
2023/06/04 11:26:15;;;;;;;2.70;1.35;;;;;;;23.61;26.54;100647.94;4998168;28;20658;-80
2023/06/04 11:28:42;;;;;;;3.50;1.60;;;;;;;22.97;26.85;100548.78;4996572;28;20053;-79
2023/06/04 11:31:09;;;;;;;2.45;1.20;;;;;;;23.38;26.87;100601.50;4994822;28;20046;-81